Time;durP1;ratioP1;P1;durP2;ratioP2;P2;SDS_P1;SDS_P2;PMS_P1;PMS_P2;Temp;Humidity;BMP_temperature;BMP_pressure;BME280_temperature;BME280_humidity;BME280_pressure;Samples;Min_cycle;Max_cycle;Signal;HPM_P1;HPM_P2
2022/10/26 08:01:45;;;;;;;5.28;3.53;;;;;;;13.61;100.00;101112.53;5265503;28;20738;-71
2022/10/26 08:04:16;;;;;;;7.10;4.57;;;;;;;13.62;100.00;101122.53;5268338;28;20036;-70
2022/10/26 08:06:48;;;;;;;4.90;3.60;;;;;;;13.68;100.00;101121.34;5280111;28;20024;-69
2022/10/26 08:09:19;;;;;;;9.10;3.50;;;;;;;13.76;100.00;101133.78;5264670;28;20055;-70
2022/10/26 08:11:51;;;;;;;4.95;2.72;;;;;;;13.79;100.00;101136.75;5258848;28;20083;-70
2022/10/26 08:14:22;;;;;;;6.25;4.45;;;;;;;13.86;100.00;101134.41;5248011;28;20116;-70
2022/10/26 08:16:53;;;;;;;6.13;3.00;;;;;;;13.93;100.00;101131.22;5238166;28;20037;-70
2022/10/26 08:19:24;;;;;;;6.40;2.85;;;;;;;14.00;100.00;101134.44;5238501;28;20112;-71
2022/10/26 08:21:56;;;;;;;6.10;3.10;;;;;;;14.05;99.84;101130.75;5238132;28;20030;-71
2022/10/26 08:24:28;;;;;;;5.15;3.28;;;;;;;14.12;99.71;101132.00;5269565;28;20029;-71
2022/10/26 08:26:59;;;;;;;5.38;2.95;;;;;;;14.17;99.67;101139.47;5269047;28;20037;-71
2022/10/26 08:29:30;;;;;;;6.00;3.05;;;;;;;14.22;99.79;101142.16;5279491;28;20047;-71
2022/10/26 08:32:02;;;;;;;4.82;2.80;;;;;;;14.29;99.53;101148.16;5244525;28;20099;-71
2022/10/26 08:34:33;;;;;;;4.90;3.40;;;;;;;14.35;99.74;101149.72;5237916;28;20543;-72
2022/10/26 08:37:04;;;;;;;5.10;3.10;;;;;;;14.41;100.00;101147.66;5258556;28;20379;-71
2022/10/26 08:39:36;;;;;;;10.20;4.18;;;;;;;14.49;100.00;101151.69;5265896;28;20025;-74
2022/10/26 08:42:15;;;;;;;5.43;2.78;;;;;;;14.55;99.83;101150.50;5249357;28;20099;-74
2022/10/26 08:45:02;;;;;;;3.47;2.53;;;;;;;14.70;98.98;101158.56;5257552;28;20064;-73
2022/10/26 08:47:43;;;;;;;5.05;3.40;;;;;;;14.75;99.60;101158.47;5253538;28;20109;-73
2022/10/26 08:50:26;;;;;;;5.95;3.55;;;;;;;14.84;99.30;101149.34;5247229;28;20099;-73
2022/10/26 08:53:16;;;;;;;5.35;2.58;;;;;;;14.93;99.04;101150.25;5257449;28;20029;-73
2022/10/26 08:55:54;;;;;;;6.38;2.67;;;;;;;15.00;99.15;101139.50;5258119;28;20464;-72
2022/10/26 08:58:50;;;;;;;5.63;2.28;;;;;;;15.10;98.74;101130.06;5257390;28;20021;-72
2022/10/26 09:01:22;;;;;;;5.07;2.60;;;;;;;15.17;98.28;101125.72;5255757;28;20053;-72
2022/10/26 09:04:01;;;;;;;3.75;2.35;;;;;;;15.20;98.05;101125.06;5256761;28;20017;-73
2022/10/26 09:07:11;;;;;;;5.45;2.40;;;;;;;15.32;97.90;101137.69;5248567;28;20036;-73
2022/10/26 09:09:54;;;;;;;6.97;2.72;;;;;;;15.39;97.19;101141.72;5257831;28;20028;-73
2022/10/26 09:12:38;;;;;;;7.63;2.50;;;;;;;15.46;97.36;101151.63;5247676;28;20036;-73
2022/10/26 09:15:48;;;;;;;6.03;3.00;;;;;;;15.49;97.22;101162.97;5242905;28;20033;-73
2022/10/26 09:18:31;;;;;;;10.50;3.08;;;;;;;15.58;96.70;101171.47;5237027;28;20113;-73
2022/10/26 09:21:19;;;;;;;5.20;2.75;;;;;;;15.74;96.88;101174.75;5242301;28;20038;-73
2022/10/26 09:24:06;;;;;;;4.28;2.33;;;;;;;15.81;96.25;101184.34;5242777;28;20036;-73
2022/10/26 09:26:53;;;;;;;5.07;2.88;;;;;;;15.86;96.05;101189.00;5243673;28;20483;-73
2022/10/26 09:29:29;;;;;;;4.85;2.25;;;;;;;15.93;94.83;101196.94;5242452;28;20074;-73
2022/10/26 09:32:02;;;;;;;8.27;3.55;;;;;;;15.98;95.45;101191.22;5244033;28;20022;-72
2022/10/26 09:34:48;;;;;;;8.05;2.95;;;;;;;16.03;94.83;101214.31;5242800;28;20043;-72
2022/10/26 09:37:24;;;;;;;5.57;2.75;;;;;;;16.17;94.53;101213.41;5243747;28;20079;-72
2022/10/26 09:40:36;;;;;;;6.82;3.50;;;;;;;16.31;94.26;101211.38;5241470;28;20052;-72
2022/10/26 09:43:12;;;;;;;5.13;2.88;;;;;;;16.26;93.46;101209.53;5232039;28;20580;-70
2022/10/26 09:45:50;;;;;;;4.38;2.42;;;;;;;16.27;93.33;101205.56;5244048;28;20026;-71
2022/10/26 09:48:32;;;;;;;3.47;2.83;;;;;;;16.33;93.31;101214.66;5242133;28;20041;-70
2022/10/26 09:51:04;;;;;;;4.22;2.42;;;;;;;16.32;93.59;101213.00;5250287;28;20021;-71
2022/10/26 09:53:36;;;;;;;6.28;2.55;;;;;;;16.33;93.98;101216.63;5233549;28;20396;-71
2022/10/26 09:56:12;;;;;;;8.00;3.33;;;;;;;16.33;94.26;101219.44;5244768;28;20017;-71
2022/10/26 09:58:52;;;;;;;5.85;2.80;;;;;;;16.33;93.97;101220.25;5259332;28;20086;-71
2022/10/26 10:01:28;;;;;;;3.85;2.75;;;;;;;16.33;94.10;101237.03;5243418;28;20052;-72
2022/10/26 10:04:11;;;;;;;4.57;2.53;;;;;;;16.39;94.01;101237.75;5241648;28;20029;-71
2022/10/26 10:06:44;;;;;;;5.63;2.58;;;;;;;16.44;93.68;101232.03;5242650;28;20112;-70
2022/10/26 10:09:19;;;;;;;7.78;2.67;;;;;;;16.45;93.62;101231.69;5241806;28;20022;-71
2022/10/26 10:11:55;;;;;;;5.70;2.55;;;;;;;16.44;93.80;101244.06;5242499;28;20064;-71
2022/10/26 10:14:28;;;;;;;;;;;;;;;16.53;94.48;101247.72;5243260;28;20350;-69
2022/10/26 10:17:07;;;;;;;5.75;3.38;;;;;;;16.58;93.31;101254.34;5241515;28;19917;-69
2022/10/26 10:19:38;;;;;;;5.38;2.95;;;;;;;16.63;93.35;101262.59;5257229;28;20363;-69
2022/10/26 10:22:21;;;;;;;7.10;3.13;;;;;;;16.65;93.16;101263.94;5263616;28;20052;-69
2022/10/26 10:24:58;;;;;;;4.90;2.97;;;;;;;16.69;93.21;101275.31;5262003;28;20063;-69
2022/10/26 10:27:32;;;;;;;6.03;3.25;;;;;;;16.74;93.03;101281.63;5264154;28;20347;-69
2022/10/26 10:30:21;;;;;;;5.75;3.00;;;;;;;16.81;93.01;101283.16;5245215;28;20034;-70
2022/10/26 10:33:11;;;;;;;6.25;2.60;;;;;;;16.94;92.59;101283.06;5241558;28;20025;-72
2022/10/26 10:35:50;;;;;;;5.43;3.15;;;;;;;16.95;92.72;101290.31;5263720;28;20020;-71
2022/10/26 10:38:22;;;;;;;6.20;2.55;;;;;;;16.93;92.50;101295.41;5262910;28;20087;-70
2022/10/26 10:41:01;;;;;;;5.15;3.00;;;;;;;17.02;91.91;101300.22;5263299;28;20071;-70
2022/10/26 10:43:32;;;;;;;6.05;2.47;;;;;;;16.99;92.32;101303.69;5256646;28;20041;-70
2022/10/26 10:46:16;;;;;;;4.28;2.88;;;;;;;17.03;92.48;101299.91;5249183;28;20028;-69
2022/10/26 10:49:01;;;;;;;5.65;2.88;;;;;;;17.04;92.81;101311.94;5253715;28;20459;-70
2022/10/26 10:51:39;;;;;;;5.05;3.00;;;;;;;17.12;92.32;101305.56;5257782;28;20051;-70
2022/10/26 10:54:23;;;;;;;4.60;2.47;;;;;;;17.11;92.01;101307.53;5258297;28;20021;-71
2022/10/26 10:57:27;;;;;;;3.75;3.05;;;;;;;17.14;92.44;101306.88;5239949;28;20083;-72
2022/10/26 11:00:02;;;;;;;4.40;2.88;;;;;;;17.19;92.32;101325.53;5217224;28;20073;-72
2022/10/26 11:02:49;;;;;;;4.53;2.45;;;;;;;17.22;92.05;101322.09;5226366;28;20041;-71
2022/10/26 11:05:47;;;;;;;4.18;2.63;;;;;;;17.27;92.79;101327.53;5223600;28;20021;-71
2022/10/26 11:08:43;;;;;;;4.20;2.35;;;;;;;17.32;92.55;101321.78;5251117;28;20064;-72
2022/10/26 11:11:22;;;;;;;5.22;2.72;;;;;;;17.34;92.41;101327.91;5262754;28;20028;-73
2022/10/26 11:14:05;;;;;;;6.00;3.20;;;;;;;17.42;92.28;101328.28;5247754;28;20486;-72
2022/10/26 11:16:41;;;;;;;3.95;2.45;;;;;;;17.47;91.95;101334.56;5249426;28;20544;-71
2022/10/26 11:19:21;;;;;;;2.72;1.92;;;;;;;17.54;92.31;101331.28;5256556;28;20020;-72
2022/10/26 11:21:54;;;;;;;4.55;2.08;;;;;;;17.60;91.94;101346.81;5236525;28;20025;-71
2022/10/26 11:24:40;;;;;;;4.68;2.20;;;;;;;17.61;91.70;101351.25;5262809;28;20029;-70
2022/10/26 11:27:16;;;;;;;4.10;2.05;;;;;;;17.56;91.19;101354.19;5257088;28;20175;-73
2022/10/26 11:30:13;;;;;;;3.42;1.75;;;;;;;17.55;91.29;101344.16;5257359;28;20037;-72
2022/10/26 11:32:53;;;;;;;5.38;1.83;;;;;;;17.64;91.58;101353.44;5231191;28;20104;-74
2022/10/26 11:35:45;;;;;;;7.43;2.53;;;;;;;17.77;90.95;101358.06;5241116;28;20049;-72
2022/10/26 11:38:35;;;;;;;3.95;2.08;;;;;;;17.93;91.33;101357.66;5240470;28;20028;-73
2022/10/26 11:41:21;;;;;;;4.55;2.30;;;;;;;17.95;89.51;101355.34;5250262;28;20033;-72
2022/10/26 11:44:02;;;;;;;6.93;2.55;;;;;;;17.98;89.00;101351.88;5241568;28;20022;-74
2022/10/26 11:46:43;;;;;;;4.65;2.50;;;;;;;17.99;89.10;101347.91;5247711;28;20048;-72
2022/10/26 11:49:28;;;;;;;3.20;2.38;;;;;;;17.99;88.84;101359.13;5249132;28;20035;-72
2022/10/26 11:52:24;;;;;;;5.55;2.72;;;;;;;17.92;89.32;101359.63;5241342;28;20030;-73
2022/10/26 11:55:00;;;;;;;5.05;2.50;;;;;;;17.85;90.14;101364.06;5233026;28;20058;-73
2022/10/26 11:57:35;;;;;;;5.40;2.47;;;;;;;17.86;90.04;101365.72;5244421;28;20032;-73
2022/10/26 12:00:19;;;;;;;5.00;2.28;;;;;;;17.98;89.35;101368.72;5242672;28;20049;-75
2022/10/26 12:03:07;;;;;;;5.05;2.03;;;;;;;18.01;87.87;101356.81;5256397;28;20048;-73
2022/10/26 12:05:38;;;;;;;5.25;2.15;;;;;;;18.08;88.05;101362.78;5262087;28;20021;-73
2022/10/26 12:08:22;;;;;;;3.40;2.15;;;;;;;18.15;87.90;101362.28;5252009;28;20029;-73
2022/10/26 12:11:04;;;;;;;6.13;2.60;;;;;;;18.26;87.61;101363.63;5239677;28;20025;-73
2022/10/26 12:13:41;;;;;;;6.47;3.28;;;;;;;18.28;85.93;101368.91;5220494;28;20022;-74
2022/10/26 12:16:43;;;;;;;5.10;2.10;;;;;;;18.40;85.97;101369.06;5231467;28;20033;-74
2022/10/26 12:19:25;;;;;;;4.38;1.88;;;;;;;18.49;85.81;101371.91;5246954;28;20044;-73
2022/10/26 12:21:57;;;;;;;4.53;2.35;;;;;;;18.70;86.13;101378.47;5238994;28;20037;-73
2022/10/26 12:24:34;;;;;;;5.32;1.95;;;;;;;18.76;84.35;101377.19;5245376;28;20029;-73
2022/10/26 12:27:25;;;;;;;4.90;1.80;;;;;;;18.73;82.88;101377.00;5261842;28;20048;-74
2022/10/26 12:30:16;;;;;;;4.88;2.53;;;;;;;18.79;82.96;101390.59;5228459;28;20038;-73
2022/10/26 12:32:51;;;;;;;6.78;2.20;;;;;;;18.85;82.31;101380.00;5227796;28;20030;-73
2022/10/26 12:35:31;;;;;;;4.43;2.45;;;;;;;18.89;81.70;101386.56;5226995;28;20356;-71
2022/10/26 12:38:22;;;;;;;3.35;1.90;;;;;;;18.94;80.37;101388.41;5231030;28;20388;-72
2022/10/26 12:41:03;;;;;;;4.57;1.80;;;;;;;19.04;80.60;101388.03;5219426;28;20065;-70
2022/10/26 12:43:36;;;;;;;3.00;1.60;;;;;;;19.06;79.91;101397.78;5229637;28;20025;-70
2022/10/26 12:46:11;;;;;;;3.45;1.58;;;;;;;19.02;78.53;101385.59;5230885;28;20608;-73
2022/10/26 12:48:43;;;;;;;3.45;1.80;;;;;;;19.07;78.83;101385.41;5234687;28;20112;-72
2022/10/26 12:51:20;;;;;;;3.15;1.80;;;;;;;19.11;77.40;101389.19;5240815;28;20038;-71
2022/10/26 12:54:09;;;;;;;5.43;2.90;;;;;;;19.13;76.56;101379.59;5234837;28;20498;-71
2022/10/26 12:56:49;;;;;;;3.72;1.70;;;;;;;19.14;77.43;101393.31;5241418;28;20064;-71
2022/10/26 12:59:39;;;;;;;5.18;1.52;;;;;;;19.14;77.54;101392.50;5241885;28;20040;-72
2022/10/26 13:02:38;;;;;;;3.97;1.60;;;;;;;19.18;76.89;101390.69;5243288;28;20041;-71
2022/10/26 13:05:15;;;;;;;5.93;1.88;;;;;;;19.15;76.73;101394.13;5221965;28;20022;-73
2022/10/26 13:07:48;;;;;;;3.40;2.08;;;;;;;19.17;76.73;101387.00;5239152;28;20051;-70
2022/10/26 13:10:23;;;;;;;5.07;1.90;;;;;;;19.18;76.85;101393.47;5254203;28;20032;-70
2022/10/26 13:13:00;;;;;;;4.78;1.52;;;;;;;19.20;75.35;101396.75;5243157;28;20028;-68
2022/10/26 13:15:39;;;;;;;5.18;1.70;;;;;;;19.18;76.21;101396.28;5244687;28;20503;-70
2022/10/26 13:18:19;;;;;;;5.25;2.00;;;;;;;19.18;76.26;101393.47;5250948;28;20029;-70
2022/10/26 13:21:05;;;;;;;28.52;25.15;;;;;;;19.27;76.23;101397.91;5246712;28;20029;-69
2022/10/26 13:23:43;;;;;;;7.03;2.40;;;;;;;19.31;75.91;101401.69;5250328;28;20484;-70
2022/10/26 13:26:17;;;;;;;5.72;2.50;;;;;;;19.26;75.60;101407.50;5262621;28;20099;-69
2022/10/26 13:28:54;;;;;;;3.97;2.15;;;;;;;19.28;75.57;101410.81;5243909;28;20025;-68
2022/10/26 13:31:31;;;;;;;3.92;2.25;;;;;;;19.34;75.19;101417.91;5235990;28;20419;-68
2022/10/26 13:34:13;;;;;;;4.40;1.67;;;;;;;19.35;76.21;101421.53;5243010;28;20021;-69
2022/10/26 13:37:09;;;;;;;4.68;1.80;;;;;;;19.32;76.41;101422.22;5243339;28;20109;-69
2022/10/26 13:39:43;;;;;;;3.08;1.65;;;;;;;19.37;74.71;101418.41;5245898;28;20135;-72
2022/10/26 13:42:19;;;;;;;3.05;2.00;;;;;;;19.39;74.55;101416.91;5235479;28;20464;-71
2022/10/26 13:45:09;;;;;;;3.97;1.70;;;;;;;19.42;72.66;101421.03;5264177;28;20468;-71
2022/10/26 13:48:09;;;;;;;4.13;1.98;;;;;;;19.42;70.75;101421.84;5224176;28;20109;-71
2022/10/26 13:50:51;;;;;;;2.47;1.40;;;;;;;19.35;69.63;101418.72;5244124;28;20029;-72
2022/10/26 13:53:31;;;;;;;4.28;1.30;;;;;;;19.36;70.28;101426.00;5250893;28;20042;-71
2022/10/26 13:56:07;;;;;;;2.95;1.50;;;;;;;19.34;70.78;101417.06;5245839;28;20127;-70
2022/10/26 13:58:49;;;;;;;4.05;1.88;;;;;;;19.38;71.47;101414.41;5242569;28;20338;-70
2022/10/26 14:01:23;;;;;;;2.63;1.90;;;;;;;19.43;71.46;101414.22;5242677;28;20076;-71
2022/10/26 14:03:54;;;;;;;3.58;1.77;;;;;;;19.42;71.15;101424.66;5248077;28;20021;-69
2022/10/26 14:06:35;;;;;;;1.98;1.75;;;;;;;19.44;71.45;101425.16;5257119;28;20068;-69
2022/10/26 14:09:15;;;;;;;6.28;1.58;;;;;;;19.45;71.69;101438.03;5242439;28;20048;-69
2022/10/26 14:11:51;;;;;;;2.83;1.33;;;;;;;19.45;71.07;101432.41;5243895;28;20543;-69
2022/10/26 14:14:27;;;;;;;4.07;1.40;;;;;;;19.41;71.34;101433.44;5259241;28;20028;-70
2022/10/26 14:16:58;;;;;;;;;;;;;;;19.44;72.20;101441.22;5243228;28;20505;-71
2022/10/26 14:19:34;;;;;;;3.55;1.50;;;;;;;19.39;71.68;101449.81;5252734;28;20011;-71
2022/10/26 14:22:06;;;;;;;3.22;2.10;;;;;;;19.43;72.22;101451.63;5262162;28;20035;-70
2022/10/26 14:24:39;;;;;;;4.82;1.95;;;;;;;19.41;71.30;101458.75;5242998;28;20108;-70
2022/10/26 14:27:19;;;;;;;6.55;1.80;;;;;;;19.41;71.31;101462.41;5234823;28;20049;-71
2022/10/26 14:29:52;;;;;;;2.80;1.50;;;;;;;19.45;71.66;101471.78;5245066;28;20041;-71
2022/10/26 14:32:32;;;;;;;3.22;1.70;;;;;;;19.45;72.29;101473.78;5241317;28;20087;-70
2022/10/26 14:35:03;;;;;;;7.40;2.92;;;;;;;19.50;72.20;101474.44;5248724;28;20107;-71
2022/10/26 14:37:53;;;;;;;2.63;1.90;;;;;;;19.44;72.43;101475.78;5249803;28;20446;-71
2022/10/26 14:40:28;;;;;;;4.18;1.80;;;;;;;19.37;72.55;101488.69;5254828;28;20034;-70
2022/10/26 14:43:00;;;;;;;;;;;;;;;19.43;73.37;101491.03;5242651;28;20025;-71
2022/10/26 14:45:33;;;;;;;6.22;1.50;;;;;;;19.47;73.14;101491.97;5228748;28;20016;-71
2022/10/26 14:48:06;;;;;;;3.33;2.10;;;;;;;19.47;73.19;101497.59;5222009;28;20040;-72
2022/10/26 14:50:40;;;;;;;2.97;1.65;;;;;;;19.47;72.91;101497.59;5251248;28;20043;-72
2022/10/26 14:53:15;;;;;;;3.13;1.50;;;;;;;19.44;73.14;101492.66;5256416;28;20104;-72
2022/10/26 14:55:51;;;;;;;4.50;1.52;;;;;;;19.40;73.69;101496.47;5249794;28;20120;-72
2022/10/26 14:58:28;;;;;;;7.57;3.50;;;;;;;19.33;74.26;101492.19;5249860;28;20076;-71
2022/10/26 15:01:21;;;;;;;8.15;2.00;;;;;;;19.29;74.31;101501.63;5254573;28;20465;-71
2022/10/26 15:03:59;;;;;;;4.25;2.28;;;;;;;19.18;74.04;101503.94;5247953;28;20403;-71
2022/10/26 15:06:34;;;;;;;3.78;1.50;;;;;;;19.13;74.61;101509.75;5254345;28;20040;-71
2022/10/26 15:09:05;;;;;;;;;;;;;;;19.13;75.23;101521.00;5249595;28;20074;-71
2022/10/26 15:11:42;;;;;;;3.50;1.85;;;;;;;19.01;75.67;101521.66;5246582;28;19916;-72
2022/10/26 15:14:16;;;;;;;3.90;1.73;;;;;;;18.98;75.78;101527.13;5241910;28;20021;-72
2022/10/26 15:16:56;;;;;;;4.15;1.80;;;;;;;18.93;76.52;101530.91;5245477;28;20044;-72
2022/10/26 15:19:27;;;;;;;5.47;2.45;;;;;;;18.88;76.53;101536.69;5231887;28;20022;-72
2022/10/26 15:21:59;;;;;;;5.00;2.05;;;;;;;18.84;77.19;101542.16;5241662;28;20060;-71
2022/10/26 15:24:38;;;;;;;5.35;1.75;;;;;;;18.80;77.65;101546.78;5251104;28;20029;-70
2022/10/26 15:27:15;;;;;;;8.43;2.03;;;;;;;18.80;77.92;101551.56;5256216;28;20029;-71
2022/10/26 15:29:49;;;;;;;5.68;1.70;;;;;;;18.75;78.29;101560.13;5248457;28;20022;-70
2022/10/26 15:32:25;;;;;;;4.85;1.75;;;;;;;18.72;78.82;101557.97;5259047;28;20102;-70
2022/10/26 15:35:18;;;;;;;4.55;1.85;;;;;;;18.72;78.64;101555.97;5257176;28;20017;-69
2022/10/26 15:37:52;;;;;;;4.85;1.85;;;;;;;18.70;78.94;101558.28;5252241;28;20495;-70
2022/10/26 15:40:24;;;;;;;6.85;2.17;;;;;;;18.66;79.34;101558.13;5258235;28;20037;-70
2022/10/26 15:42:58;;;;;;;4.63;2.10;;;;;;;18.64;79.21;101560.44;5255779;28;20032;-71
2022/10/26 15:45:33;;;;;;;6.00;1.92;;;;;;;18.60;79.72;101565.03;5245329;28;20670;-71
2022/10/26 15:48:27;;;;;;;6.95;2.15;;;;;;;18.61;79.80;101563.91;5253214;28;20033;-70
2022/10/26 15:50:59;;;;;;;3.45;1.60;;;;;;;18.54;80.27;101563.53;5254118;28;20061;-71
2022/10/26 15:53:34;;;;;;;5.07;2.00;;;;;;;18.56;80.53;101572.47;5239345;28;20433;-71
2022/10/26 15:56:17;;;;;;;5.13;1.98;;;;;;;18.52;80.66;101567.84;5256584;28;20082;-71
2022/10/26 15:58:49;;;;;;;5.50;1.92;;;;;;;18.50;80.84;101576.56;5262589;28;20490;-71
2022/10/26 16:01:25;;;;;;;6.78;2.35;;;;;;;18.47;80.99;101572.44;5260722;28;20091;-72
2022/10/26 16:03:57;;;;;;;6.68;2.45;;;;;;;18.46;81.00;101578.41;5257531;28;20025;-74
2022/10/26 16:06:34;;;;;;;3.33;1.67;;;;;;;18.42;81.49;101581.00;5251399;28;20055;-72
2022/10/26 16:09:09;;;;;;;6.82;2.53;;;;;;;18.40;81.64;101582.50;5258903;28;20527;-70
2022/10/26 16:11:41;;;;;;;5.32;1.90;;;;;;;18.36;81.88;101582.31;5240616;28;20030;-69
2022/10/26 16:14:12;;;;;;;4.18;1.65;;;;;;;18.34;81.86;101581.00;5220665;28;20414;-72
2022/10/26 16:16:47;;;;;;;5.47;1.83;;;;;;;18.30;82.60;101586.41;5224996;28;20021;-72
2022/10/26 16:19:18;;;;;;;8.25;3.70;;;;;;;18.24;82.60;101582.94;5241029;28;20025;-71
2022/10/26 16:21:51;;;;;;;6.38;2.42;;;;;;;18.21;82.62;101591.19;5242508;28;20030;-70
2022/10/26 16:24:22;;;;;;;6.10;2.03;;;;;;;18.15;82.76;101598.91;5244351;28;20060;-71
2022/10/26 16:26:54;;;;;;;7.13;2.72;;;;;;;18.11;82.88;101609.13;5237679;28;20054;-70
2022/10/26 16:29:25;;;;;;;7.38;2.50;;;;;;;18.07;83.13;101602.50;5239580;28;20084;-71
2022/10/26 16:31:56;;;;;;;4.13;2.17;;;;;;;18.03;83.63;101613.53;5245383;28;20121;-72
2022/10/26 16:34:28;;;;;;;3.92;2.10;;;;;;;17.99;84.02;101603.28;5264192;28;20029;-71
2022/10/26 16:36:59;;;;;;;6.38;1.95;;;;;;;17.97;84.01;101622.41;5265348;28;20468;-71
2022/10/26 16:39:30;;;;;;;5.10;1.63;;;;;;;17.94;83.95;101617.44;5265911;28;20029;-72
2022/10/26 16:42:02;;;;;;;5.30;2.17;;;;;;;17.87;84.54;101620.72;5262874;28;20514;-71
2022/10/26 16:44:33;;;;;;;7.10;1.80;;;;;;;17.85;84.34;101631.44;5238916;28;20101;-71
2022/10/26 16:47:05;;;;;;;4.72;2.22;;;;;;;17.81;84.66;101633.22;5228015;28;20119;-71
2022/10/26 16:49:37;;;;;;;7.45;1.95;;;;;;;17.80;84.96;101634.38;5244527;28;20022;-71
2022/10/26 16:52:10;;;;;;;9.57;2.50;;;;;;;17.77;84.89;101633.00;5243978;28;20033;-72
2022/10/26 16:54:41;;;;;;;7.63;2.30;;;;;;;17.72;85.02;101630.31;5246240;28;20117;-72
2022/10/26 16:57:12;;;;;;;5.53;2.00;;;;;;;17.68;85.82;101629.28;5264739;28;20100;-71
2022/10/26 16:59:44;;;;;;;5.70;2.08;;;;;;;17.69;85.70;101630.13;5255717;28;20203;-71
2022/10/26 17:02:15;;;;;;;6.90;2.90;;;;;;;17.65;86.26;101637.53;5226017;28;20026;-72
2022/10/26 17:04:46;;;;;;;6.32;3.10;;;;;;;17.59;86.58;101639.63;5223400;28;20030;-72
2022/10/26 17:07:18;;;;;;;6.15;2.60;;;;;;;17.59;86.52;101648.06;5244104;28;20048;-72
2022/10/26 17:09:49;;;;;;;6.70;3.05;;;;;;;17.56;86.65;101648.66;5244802;28;20102;-70
2022/10/26 17:12:20;;;;;;;8.23;3.17;;;;;;;17.48;87.10;101655.84;5243723;28;20045;-71
2022/10/26 17:14:52;;;;;;;7.65;2.65;;;;;;;17.46;87.46;101658.19;5244438;28;20018;-72
2022/10/26 17:17:26;;;;;;;5.10;2.67;;;;;;;17.43;87.94;101661.59;5240517;28;20018;-71
2022/10/26 17:19:57;;;;;;;6.30;3.40;;;;;;;17.37;88.13;101663.69;5227020;28;20036;-72
2022/10/26 17:22:28;;;;;;;10.63;3.92;;;;;;;17.33;88.54;101670.22;5264720;28;20376;-72
2022/10/26 17:25:00;;;;;;;8.10;3.90;;;;;;;17.31;87.97;101670.56;5265148;28;20057;-72
2022/10/26 17:27:31;;;;;;;6.82;3.67;;;;;;;17.28;88.87;101668.41;5264098;28;20111;-72
2022/10/26 17:30:03;;;;;;;9.18;3.90;;;;;;;17.22;89.01;101672.44;5248356;28;20029;-70
2022/10/26 17:32:37;;;;;;;6.30;3.85;;;;;;;17.24;89.44;101675.78;5241594;28;20425;-69
